Terminal Aerodrome Forecast
Issued by NWS

Home | Current Version | Previous Version | Graphics & Text | Print | Product List | Glossary On
Versions: 1 2 3 4 5 6 7 8 9 10 11 12 13 14 15
000
FTUS43 KABR 181900 AAB
TAFATY
TAF AMD
KATY 181902Z 1819/1918 23010KT P6SM OVC009
     FM181930 20008KT P6SM OVC010
     FM182100 18009KT P6SM SKC
     FM190400 20011KT P6SM BKN250=

USA.gov is the U.S. government's official web portal to all federal, state and local government web resources and services.